Time;durP1;ratioP1;P1;durP2;ratioP2;P2;SDS_P1;SDS_P2;PMS_P1;PMS_P2;Temp;Humidity;BMP_temperature;BMP_pressure;BME280_temperature;BME280_humidity;BME280_pressure;Samples;Min_cycle;Max_cycle;Signal;HPM_P1;HPM_P2
2022/08/23 00:01:58;;;;;;;0.50;0.50;;;18.10;98.40;;;;;;5043846;28;20954;-62
2022/08/23 00:04:33;;;;;;;0.50;0.50;;;18.10;98.50;;;;;;5048325;28;20918;-62
2022/08/23 00:07:04;;;;;;;0.80;0.80;;;18.00;98.50;;;;;;5042550;28;20437;-62
2022/08/23 00:09:31;;;;;;;0.40;0.40;;;18.00;98.60;;;;;;5046914;28;20476;-62
2022/08/23 00:12:17;;;;;;;0.50;0.50;;;17.90;98.70;;;;;;5046979;28;20429;-61
2022/08/23 00:14:48;;;;;;;0.50;0.50;;;17.90;98.70;;;;;;5044807;28;20425;-62
2022/08/23 00:17:15;;;;;;;0.50;0.50;;;17.80;98.90;;;;;;5042888;28;20439;-62
2022/08/23 00:20:01;;;;;;;1.77;0.73;;;17.80;99.00;;;;;;5045483;28;20477;-62
2022/08/23 00:22:28;;;;;;;0.80;0.80;;;17.70;99.10;;;;;;5037880;28;20992;-62
2022/08/23 00:24:55;;;;;;;0.60;0.60;;;17.70;99.20;;;;;;5043757;28;20433;-62
2022/08/23 00:27:22;;;;;;;0.82;0.82;;;17.60;99.20;;;;;;5043968;28;20987;-62
2022/08/23 00:29:52;;;;;;;0.50;0.50;;;17.60;99.30;;;;;;5045547;28;20551;-62
2022/08/23 00:32:28;;;;;;;0.40;0.40;;;17.50;99.40;;;;;;5041355;28;20529;-62
2022/08/23 00:34:59;;;;;;;0.70;0.70;;;17.50;99.50;;;;;;5045497;28;20516;-62
2022/08/23 00:37:31;;;;;;;0.60;0.60;;;17.50;99.60;;;;;;5041946;28;20432;-62
2022/08/23 00:39:59;;;;;;;0.55;0.55;;;17.50;99.70;;;;;;5046914;28;20521;-62
2022/08/23 00:48:56;;;;;;;0.50;0.50;;;17.50;99.70;;;;;;5044457;28;20517;-61
2022/08/23 00:51:31;;;;;;;0.53;0.53;;;17.50;99.80;;;;;;5032420;28;21014;-62
2022/08/23 00:54:15;;;;;;;0.60;0.60;;;17.50;99.90;;;;;;5039157;28;20439;-62
2022/08/23 00:56:42;;;;;;;0.70;0.70;;;17.40;99.90;;;;;;5039759;28;20433;-62
2022/08/23 00:59:09;;;;;;;0.40;0.40;;;17.30;99.90;;;;;;5047726;28;20428;-62
2022/08/23 01:01:37;;;;;;;0.50;0.50;;;17.30;99.90;;;;;;5048658;28;20990;-62
2022/08/23 01:04:11;;;;;;;0.90;0.90;;;17.30;99.90;;;;;;5043521;28;20469;-62
2022/08/23 01:06:49;;;;;;;0.50;0.50;;;17.30;99.90;;;;;;5041511;28;20433;-62
2022/08/23 01:09:19;;;;;;;0.40;0.40;;;17.30;99.90;;;;;;5043148;28;20437;-61
2022/08/23 01:11:53;;;;;;;0.55;0.55;;;17.30;99.90;;;;;;5040631;28;20930;-62
2022/08/23 01:14:31;;;;;;;0.70;0.70;;;17.30;99.90;;;;;;5044284;28;20911;-62
2022/08/23 01:17:16;;;;;;;0.60;0.60;;;17.30;99.90;;;;;;5037873;28;20508;-62
2022/08/23 01:19:57;;;;;;;0.55;0.55;;;17.30;99.90;;;;;;5041980;28;20440;-62
2022/08/23 01:22:28;;;;;;;0.50;0.50;;;17.20;99.90;;;;;;5045204;28;20433;-62
2022/08/23 01:24:55;;;;;;;0.47;0.47;;;17.20;99.90;;;;;;5043891;28;20432;-62
2022/08/23 01:27:36;;;;;;;0.68;0.68;;;17.10;99.90;;;;;;5039545;28;20483;-62
2022/08/23 01:30:08;;;;;;;0.60;0.60;;;17.10;99.90;;;;;;5042542;28;20506;-62
2022/08/23 01:32:41;;;;;;;0.57;0.57;;;17.10;99.90;;;;;;5048036;28;20489;-62
2022/08/23 01:35:09;;;;;;;0.60;0.60;;;17.20;99.90;;;;;;5042980;28;20459;-62
2022/08/23 01:37:37;;;;;;;0.57;0.57;;;17.20;99.90;;;;;;5040182;28;20455;-62
2022/08/23 01:40:05;;;;;;;0.50;0.50;;;17.10;99.90;;;;;;5039298;28;21116;-61
2022/08/23 01:42:35;;;;;;;0.50;0.50;;;17.10;99.90;;;;;;5046876;28;20436;-62
2022/08/23 01:45:02;;;;;;;0.50;0.50;;;17.00;99.90;;;;;;5047222;28;20436;-62
2022/08/23 01:47:30;;;;;;;0.60;0.60;;;17.00;99.90;;;;;;5047579;28;20440;-62
2022/08/23 01:50:00;;;;;;;0.90;0.80;;;16.90;99.90;;;;;;5044221;28;20502;-62
2022/08/23 01:52:27;;;;;;;0.70;0.70;;;16.90;99.90;;;;;;5050253;28;20502;-62
2022/08/23 01:54:56;;;;;;;0.45;0.45;;;16.80;99.90;;;;;;5046199;28;20491;-62
2022/08/23 01:57:27;;;;;;;0.80;0.80;;;16.80;99.90;;;;;;5048160;28;20436;-62
2022/08/23 01:59:56;;;;;;;0.40;0.40;;;16.80;99.90;;;;;;5048666;28;20486;-62
2022/08/23 02:02:24;;;;;;;0.50;0.50;;;16.80;99.90;;;;;;5048967;28;20433;-62
2022/08/23 02:04:51;;;;;;;0.40;0.40;;;16.70;99.90;;;;;;5048287;28;20522;-62
2022/08/23 02:07:19;;;;;;;0.65;0.65;;;16.70;99.90;;;;;;5051005;28;20436;-62
2022/08/23 02:09:47;;;;;;;0.50;0.50;;;16.60;99.90;;;;;;5043416;28;20492;-62
2022/08/23 02:12:16;;;;;;;0.60;0.60;;;16.60;99.90;;;;;;5047774;28;20541;-62
2022/08/23 02:14:43;;;;;;;0.60;0.60;;;16.50;99.90;;;;;;5047024;28;20434;-62
2022/08/23 02:17:16;;;;;;;0.57;0.57;;;16.40;99.90;;;;;;5047209;28;20571;-62
2022/08/23 02:19:44;;;;;;;0.50;0.50;;;16.50;99.90;;;;;;5048880;28;20436;-62
2022/08/23 02:22:11;;;;;;;0.70;0.70;;;16.40;99.90;;;;;;5049087;28;20791;-62
2022/08/23 02:24:40;;;;;;;0.50;0.50;;;16.40;99.90;;;;;;5045381;28;20428;-62
2022/08/23 02:27:08;;;;;;;0.57;0.57;;;16.50;99.90;;;;;;5050095;28;20965;-62
2022/08/23 02:29:36;;;;;;;0.70;0.70;;;16.50;99.90;;;;;;5048042;28;20433;-62
2022/08/23 02:32:05;;;;;;;0.40;0.40;;;16.40;99.90;;;;;;5047940;28;20433;-62
2022/08/23 02:34:36;;;;;;;0.65;0.65;;;16.40;99.90;;;;;;5043579;28;20433;-62
2022/08/23 02:37:03;;;;;;;0.98;0.98;;;16.40;99.90;;;;;;5047928;28;20487;-62
2022/08/23 02:39:31;;;;;;;0.68;0.68;;;16.30;99.90;;;;;;5048865;28;20452;-62
2022/08/23 02:41:59;;;;;;;0.70;0.70;;;16.30;99.90;;;;;;5047165;28;20970;-62
2022/08/23 02:44:30;;;;;;;0.50;0.50;;;16.30;99.90;;;;;;5045914;28;20430;-62
2022/08/23 02:46:57;;;;;;;0.50;0.50;;;16.20;99.90;;;;;;5050950;28;20436;-61
2022/08/23 02:49:24;;;;;;;0.70;0.70;;;16.20;99.90;;;;;;5048283;28;20478;-61
2022/08/23 02:51:51;;;;;;;0.57;0.57;;;16.10;99.90;;;;;;5050417;28;20426;-62
2022/08/23 02:54:18;;;;;;;0.60;0.60;;;16.00;99.90;;;;;;5046160;28;20454;-62
2022/08/23 02:56:45;;;;;;;0.73;0.73;;;16.00;99.90;;;;;;5048362;28;20431;-61
2022/08/23 02:59:13;;;;;;;0.60;0.60;;;16.00;99.90;;;;;;5056152;28;20461;-62
2022/08/23 03:01:40;;;;;;;0.60;0.60;;;16.00;99.90;;;;;;5047483;28;20463;-62
2022/08/23 03:04:09;;;;;;;0.52;0.52;;;16.00;99.90;;;;;;5046089;28;20467;-62
2022/08/23 03:06:37;;;;;;;3.10;0.90;;;15.90;99.90;;;;;;5049945;28;20429;-61
2022/08/23 03:09:06;;;;;;;0.67;0.67;;;15.80;99.90;;;;;;5047993;28;20482;-61
2022/08/23 03:11:33;;;;;;;0.70;0.70;;;15.80;99.90;;;;;;5049842;28;20544;-62
2022/08/23 03:14:01;;;;;;;1.13;0.60;;;15.80;99.90;;;;;;5045113;28;20427;-62
2022/08/23 03:16:29;;;;;;;0.50;0.50;;;15.80;99.90;;;;;;5047597;28;20425;-62
2022/08/23 03:18:56;;;;;;;0.63;0.63;;;15.80;99.90;;;;;;5046445;28;20428;-62
2022/08/23 03:21:23;;;;;;;0.55;0.55;;;15.80;99.90;;;;;;5041655;28;20431;-62
2022/08/23 03:23:50;;;;;;;0.45;0.45;;;15.70;99.90;;;;;;5048011;28;20471;-62
2022/08/23 03:26:18;;;;;;;0.63;0.63;;;15.70;99.90;;;;;;5047184;28;20429;-62
2022/08/23 03:28:45;;;;;;;0.50;0.50;;;15.70;99.90;;;;;;5048125;28;20433;-61
2022/08/23 03:31:15;;;;;;;0.70;0.70;;;15.70;99.90;;;;;;5039676;28;20905;-62
2022/08/23 03:33:43;;;;;;;0.60;0.60;;;15.60;99.90;;;;;;5041952;28;20800;-62
2022/08/23 03:36:11;;;;;;;0.60;0.57;;;15.60;99.90;;;;;;5048276;28;20895;-61
2022/08/23 03:38:40;;;;;;;0.80;0.80;;;15.50;99.90;;;;;;5043990;28;20939;-62
2022/08/23 03:41:08;;;;;;;0.60;0.60;;;15.40;99.90;;;;;;5043164;28;20443;-61
2022/08/23 03:43:36;;;;;;;1.00;0.77;;;15.30;99.90;;;;;;5043217;28;20982;-61
2022/08/23 03:46:04;;;;;;;1.20;0.90;;;15.30;99.90;;;;;;5042652;28;20437;-62
2022/08/23 03:48:31;;;;;;;0.70;0.70;;;15.30;99.90;;;;;;5048375;28;20997;-61
2022/08/23 03:50:59;;;;;;;0.70;0.70;;;15.30;99.90;;;;;;5046881;28;20452;-62
2022/08/23 03:53:26;;;;;;;1.00;1.00;;;15.20;99.90;;;;;;5041287;28;20641;-62
2022/08/23 03:55:55;;;;;;;0.70;0.50;;;15.20;99.90;;;;;;5037990;28;20502;-62
2022/08/23 03:58:26;;;;;;;0.60;0.60;;;15.20;99.90;;;;;;5053429;28;21134;-61
2022/08/23 04:00:56;;;;;;;0.75;0.75;;;15.20;99.90;;;;;;5046165;28;20429;-61
2022/08/23 04:03:23;;;;;;;0.75;0.75;;;15.10;99.90;;;;;;5040846;28;20456;-61
2022/08/23 04:05:51;;;;;;;0.60;0.60;;;15.10;99.90;;;;;;5048092;28;20991;-61
2022/08/23 04:08:18;;;;;;;0.57;0.57;;;15.00;99.90;;;;;;5051896;28;20460;-65
2022/08/23 04:11:03;;;;;;;0.60;0.60;;;15.10;99.90;;;;;;5046650;28;20514;-62
2022/08/23 04:13:30;;;;;;;0.50;0.50;;;15.00;99.90;;;;;;5044011;28;20433;-61
2022/08/23 04:16:02;;;;;;;1.48;0.63;;;15.00;99.90;;;;;;5045586;28;20520;-62
2022/08/23 04:18:30;;;;;;;0.50;0.50;;;15.00;99.90;;;;;;5047957;28;20480;-62
2022/08/23 04:21:01;;;;;;;0.60;0.60;;;15.00;99.90;;;;;;5036359;28;20431;-61
2022/08/23 04:23:28;;;;;;;0.70;0.70;;;15.20;99.90;;;;;;5039307;28;20436;-61
2022/08/23 04:25:56;;;;;;;0.80;0.80;;;15.20;99.90;;;;;;5043765;28;20515;-61
2022/08/23 04:28:24;;;;;;;0.80;0.50;;;15.30;99.90;;;;;;5041672;28;20457;-61
2022/08/23 04:30:52;;;;;;;0.60;0.60;;;15.30;99.90;;;;;;5042171;28;20922;-61
2022/08/23 04:33:21;;;;;;;0.60;0.60;;;15.30;99.90;;;;;;5042750;28;20507;-61
2022/08/23 04:35:50;;;;;;;0.68;0.68;;;15.30;99.90;;;;;;5041472;28;20439;-61
2022/08/23 04:38:17;;;;;;;0.85;0.70;;;15.40;99.90;;;;;;5040581;28;20491;-61
2022/08/23 04:43:39;;;;;;;0.73;0.60;;;15.30;99.90;;;;;;5037741;28;20433;-61
2022/08/23 04:46:07;;;;;;;0.50;0.50;;;15.30;99.90;;;;;;5044005;28;21001;-62
2022/08/23 04:48:34;;;;;;;0.60;0.60;;;15.20;99.90;;;;;;5048024;28;20429;-62
2022/08/23 04:51:04;;;;;;;0.60;0.60;;;15.20;99.90;;;;;;5036381;28;21097;-62
2022/08/23 04:53:35;;;;;;;0.80;0.80;;;15.20;99.90;;;;;;5041543;28;20483;-61
2022/08/23 04:56:03;;;;;;;0.55;0.55;;;15.20;99.90;;;;;;5042851;28;20436;-61
2022/08/23 04:58:32;;;;;;;0.87;0.60;;;15.20;99.90;;;;;;5042041;28;20477;-62
2022/08/23 05:01:01;;;;;;;0.80;0.80;;;15.20;99.90;;;;;;5045059;28;20440;-62
2022/08/23 05:03:28;;;;;;;0.90;0.90;;;15.20;99.90;;;;;;5046206;28;20919;-61
2022/08/23 05:05:56;;;;;;;1.70;1.00;;;15.20;99.90;;;;;;5044319;28;20568;-61
2022/08/23 05:08:24;;;;;;;0.70;0.70;;;15.20;99.90;;;;;;5041241;28;20444;-62
2022/08/23 05:10:52;;;;;;;0.52;0.52;;;15.30;99.90;;;;;;5045253;28;20440;-61
2022/08/23 05:13:19;;;;;;;1.55;0.65;;;15.40;99.90;;;;;;5040810;28;20433;-62
2022/08/23 05:15:50;;;;;;;0.60;0.60;;;15.50;99.90;;;;;;5043734;28;21024;-62
2022/08/23 05:18:17;;;;;;;0.80;0.80;;;15.60;99.90;;;;;;5045002;28;20441;-61
2022/08/23 05:20:45;;;;;;;0.68;0.68;;;15.80;99.90;;;;;;5044984;28;20428;-62
2022/08/23 05:23:12;;;;;;;1.00;0.88;;;15.90;99.90;;;;;;5043241;28;20437;-62
2022/08/23 05:25:48;;;;;;;1.58;0.63;;;16.10;99.90;;;;;;5039698;28;20430;-62
2022/08/23 05:28:22;;;;;;;0.80;0.80;;;16.30;99.90;;;;;;5041499;28;20986;-61
2022/08/23 05:31:26;;;;;;;0.75;0.75;;;16.40;99.90;;;;;;5046658;28;20465;-62
2022/08/23 05:33:54;;;;;;;0.73;0.73;;;16.60;99.90;;;;;;5040276;28;20461;-62
2022/08/23 05:36:23;;;;;;;0.70;0.70;;;16.80;99.90;;;;;;5044820;28;20512;-62
2022/08/23 05:38:52;;;;;;;0.57;0.57;;;17.00;99.90;;;;;;5043105;28;20490;-62
2022/08/23 05:41:22;;;;;;;0.63;0.63;;;17.10;99.90;;;;;;5044691;28;20433;-62
2022/08/23 05:44:04;;;;;;;0.77;0.77;;;17.20;99.90;;;;;;5048665;28;20511;-62
2022/08/23 05:46:32;;;;;;;0.85;0.85;;;17.40;99.90;;;;;;5040439;28;20913;-62
2022/08/23 05:49:00;;;;;;;0.85;0.85;;;17.50;99.90;;;;;;5037590;28;20468;-61
2022/08/23 05:51:30;;;;;;;1.10;0.85;;;17.60;99.90;;;;;;5043403;28;20428;-62
2022/08/23 05:54:03;;;;;;;0.80;0.80;;;17.70;99.90;;;;;;5043161;28;20436;-62
2022/08/23 05:56:33;;;;;;;0.90;0.90;;;17.80;99.90;;;;;;5046510;28;20433;-59
2022/08/23 05:59:05;;;;;;;0.70;0.70;;;18.00;99.90;;;;;;5049212;28;20436;-57
2022/08/23 06:01:39;;;;;;;0.90;0.90;;;18.10;99.90;;;;;;5039583;28;20565;-57
2022/08/23 06:04:10;;;;;;;0.75;0.75;;;18.30;99.90;;;;;;5049462;28;20436;-57
2022/08/23 06:06:40;;;;;;;1.08;0.88;;;18.80;99.90;;;;;;5046482;28;20521;-57
2022/08/23 06:09:11;;;;;;;0.57;0.57;;;19.40;99.90;;;;;;5044829;28;20459;-57
2022/08/23 06:11:38;;;;;;;0.70;0.70;;;20.20;99.90;;;;;;5046148;28;20462;-57
2022/08/23 06:14:07;;;;;;;0.77;0.77;;;20.90;99.90;;;;;;5044675;28;21107;-57
2022/08/23 06:16:39;;;;;;;0.75;0.75;;;21.70;99.90;;;;;;5038645;28;20427;-57
2022/08/23 06:19:07;;;;;;;0.52;0.52;;;22.20;99.90;;;;;;5042481;28;20455;-57
2022/08/23 06:21:35;;;;;;;0.60;0.60;;;23.00;99.90;;;;;;5041141;28;20531;-57
2022/08/23 06:24:03;;;;;;;0.65;0.65;;;23.40;99.40;;;;;;5043625;28;20433;-57
2022/08/23 06:26:32;;;;;;;0.60;0.60;;;23.30;98.80;;;;;;5046992;28;20425;-57
2022/08/23 06:29:04;;;;;;;0.68;0.68;;;23.60;98.60;;;;;;5046580;28;20428;-57
2022/08/23 06:31:44;;;;;;;0.70;0.70;;;24.00;98.00;;;;;;5042820;28;20532;-58
2022/08/23 06:34:18;;;;;;;0.70;0.70;;;24.10;97.40;;;;;;5042632;28;20437;-58
2022/08/23 06:36:48;;;;;;;0.65;0.65;;;24.20;97.50;;;;;;5042289;28;20935;-57
2022/08/23 06:39:17;;;;;;;0.63;0.63;;;24.60;97.20;;;;;;5041385;28;20863;-58
2022/08/23 06:41:47;;;;;;;0.80;0.80;;;24.70;96.90;;;;;;5044924;28;20516;-58
2022/08/23 06:44:15;;;;;;;0.52;0.52;;;24.60;96.10;;;;;;5045831;28;20482;-57
2022/08/23 06:46:42;;;;;;;0.60;0.60;;;24.80;96.20;;;;;;5044886;28;20953;-58
2022/08/23 06:49:10;;;;;;;0.45;0.45;;;24.90;95.90;;;;;;5039707;28;20431;-58
2022/08/23 06:51:47;;;;;;;0.70;0.70;;;24.70;95.90;;;;;;5049193;28;20441;-58
2022/08/23 06:54:22;;;;;;;0.70;0.70;;;25.00;95.80;;;;;;5041351;28;20832;-58
2022/08/23 06:56:52;;;;;;;0.60;0.60;;;25.20;95.50;;;;;;5048223;28;20487;-58
2022/08/23 06:59:22;;;;;;;0.65;0.57;;;25.10;95.20;;;;;;5050906;28;20436;-61
2022/08/23 07:02:04;;;;;;;0.70;0.70;;;25.10;95.30;;;;;;5040203;28;21114;-58
2022/08/23 07:04:34;;;;;;;0.80;0.80;;;25.20;95.40;;;;;;5037063;28;20425;-57
2022/08/23 07:07:02;;;;;;;0.50;0.50;;;25.30;95.10;;;;;;5033598;28;20792;-58
2022/08/23 07:09:30;;;;;;;1.40;0.80;;;25.50;94.80;;;;;;5039982;28;20490;-58
2022/08/23 07:11:58;;;;;;;0.60;0.60;;;25.30;94.60;;;;;;5044358;28;20503;-59
2022/08/23 07:14:28;;;;;;;0.57;0.57;;;25.00;95.00;;;;;;5043188;28;20425;-58
2022/08/23 07:17:00;;;;;;;0.70;0.70;;;25.50;95.10;;;;;;5044627;28;20968;-58
2022/08/23 07:19:29;;;;;;;0.70;0.70;;;26.10;94.90;;;;;;5037938;28;20434;-58
2022/08/23 07:21:58;;;;;;;0.50;0.50;;;26.40;93.90;;;;;;5043786;28;20417;-58
2022/08/23 07:24:26;;;;;;;0.68;0.68;;;26.80;93.90;;;;;;5038234;28;20440;-58
2022/08/23 07:27:00;;;;;;;0.50;0.50;;;26.60;93.80;;;;;;5040078;28;20431;-58
2022/08/23 07:29:28;;;;;;;0.50;0.50;;;27.20;93.60;;;;;;5040498;28;20943;-58
2022/08/23 07:31:56;;;;;;;0.50;0.50;;;27.80;93.20;;;;;;5043112;28;20441;-58
2022/08/23 07:34:27;;;;;;;0.80;0.77;;;27.70;92.80;;;;;;5049587;28;20432;-58
2022/08/23 07:36:55;;;;;;;0.93;0.80;;;27.70;92.50;;;;;;5051707;28;20463;-58
2022/08/23 07:39:22;;;;;;;0.60;0.60;;;27.30;92.50;;;;;;5046195;28;20965;-58
2022/08/23 07:41:51;;;;;;;0.70;0.70;;;27.70;92.40;;;;;;5039039;28;20438;-58
2022/08/23 07:44:18;;;;;;;0.50;0.50;;;28.10;92.50;;;;;;5040809;28;20483;-58
2022/08/23 07:46:49;;;;;;;0.88;0.88;;;28.20;91.60;;;;;;5043024;28;20425;-58
2022/08/23 07:49:16;;;;;;;1.20;0.80;;;28.20;91.80;;;;;;5045632;28;20433;-58
2022/08/23 07:51:49;;;;;;;0.60;0.50;;;28.90;92.00;;;;;;5047291;28;20492;-59
2022/08/23 07:54:18;;;;;;;0.52;0.52;;;29.00;90.60;;;;;;5043909;28;20467;-59
2022/08/23 07:56:45;;;;;;;0.50;0.50;;;29.10;91.00;;;;;;5043436;28;20429;-58
2022/08/23 07:59:14;;;;;;;0.50;0.50;;;28.90;91.20;;;;;;5045929;28;21048;-58
2022/08/23 08:01:43;;;;;;;0.50;0.50;;;29.10;90.60;;;;;;5049377;28;20424;-58
2022/08/23 08:04:10;;;;;;;0.60;0.60;;;29.30;90.80;;;;;;5051627;28;20458;-58
2022/08/23 08:06:42;;;;;;;0.57;0.57;;;29.40;91.00;;;;;;5042523;28;20471;-58
2022/08/23 08:09:11;;;;;;;0.60;0.60;;;29.70;90.60;;;;;;5052963;28;20476;-58
2022/08/23 08:11:41;;;;;;;0.70;0.50;;;29.70;90.60;;;;;;5043980;28;20435;-58
2022/08/23 08:14:09;;;;;;;0.50;0.50;;;30.00;90.10;;;;;;5035516;28;20472;-58
2022/08/23 08:16:43;;;;;;;0.40;0.40;;;30.20;90.20;;;;;;5045023;28;20437;-59
2022/08/23 08:19:14;;;;;;;0.50;0.50;;;30.50;89.80;;;;;;5036781;28;20426;-59
2022/08/23 08:21:46;;;;;;;0.60;0.60;;;29.80;89.50;;;;;;5045619;28;20429;-59
2022/08/23 08:24:15;;;;;;;0.70;0.50;;;29.40;89.60;;;;;;5053795;28;20971;-59
2022/08/23 08:26:43;;;;;;;0.60;0.60;;;29.30;89.50;;;;;;5038154;28;20437;-58
2022/08/23 08:29:11;;;;;;;0.60;0.60;;;29.60;90.10;;;;;;5043563;28;20484;-59
2022/08/23 08:31:40;;;;;;;0.75;0.75;;;29.60;88.30;;;;;;5043557;28;20437;-58
2022/08/23 08:34:08;;;;;;;0.57;0.57;;;29.70;86.40;;;;;;5036437;28;21176;-58
2022/08/23 08:36:42;;;;;;;0.60;0.60;;;30.10;86.20;;;;;;5046094;28;20969;-58
2022/08/23 08:39:19;;;;;;;0.60;0.60;;;30.20;87.20;;;;;;5046040;28;20438;-59
2022/08/23 08:41:55;;;;;;;2.00;0.68;;;30.20;87.20;;;;;;5045980;28;20433;-58
2022/08/23 08:44:57;;;;;;;0.70;0.65;;;30.00;87.80;;;;;;5042330;28;21009;-58
2022/08/23 08:47:43;;;;;;;0.50;0.50;;;30.10;87.20;;;;;;5044117;28;20450;-58
2022/08/23 08:50:31;;;;;;;0.77;0.77;;;30.20;88.00;;;;;;5036513;28;20440;-58
2022/08/23 08:53:02;;;;;;;0.60;0.60;;;30.60;89.40;;;;;;5065945;28;20437;-59
2022/08/23 08:55:33;;;;;;;0.60;0.60;;;30.60;88.70;;;;;;5046615;28;20523;-58
2022/08/23 08:58:05;;;;;;;0.80;0.60;;;30.50;86.60;;;;;;5055090;28;20423;-58
2022/08/23 09:00:37;;;;;;;0.80;0.80;;;30.20;88.00;;;;;;5039198;28;20433;-58
2022/08/23 09:03:11;;;;;;;0.60;0.60;;;29.90;87.00;;;;;;5041313;28;20441;-58
2022/08/23 09:05:54;;;;;;;0.70;0.70;;;29.40;87.10;;;;;;5044624;28;20446;-58
2022/08/23 09:08:52;;;;;;;0.50;0.50;;;29.50;88.30;;;;;;5043875;28;20438;-59
2022/08/23 09:11:46;;;;;;;0.60;0.60;;;29.20;88.00;;;;;;5042244;28;20433;-58
2022/08/23 09:14:20;;;;;;;0.60;0.60;;;29.90;87.80;;;;;;5046559;28;20431;-59
2022/08/23 09:16:56;;;;;;;0.45;0.45;;;29.80;87.00;;;;;;5045019;28;20435;-58
2022/08/23 09:19:24;;;;;;;0.80;0.68;;;29.60;88.50;;;;;;5032548;28;20508;-58
2022/08/23 09:22:00;;;;;;;0.50;0.50;;;29.50;88.80;;;;;;5041148;28;20433;-59
2022/08/23 09:24:29;;;;;;;0.40;0.40;;;30.00;88.70;;;;;;5038576;28;20540;-59
2022/08/23 09:26:56;;;;;;;0.60;0.60;;;28.90;88.30;;;;;;5035393;28;20440;-58
2022/08/23 09:29:33;;;;;;;1.00;1.00;;;28.80;88.90;;;;;;5070498;28;20811;-59
2022/08/23 09:32:04;;;;;;;0.60;0.60;;;28.90;89.30;;;;;;5050060;28;20489;-59
2022/08/23 09:34:33;;;;;;;0.63;0.63;;;29.50;89.10;;;;;;5038715;28;20429;-59
2022/08/23 09:37:21;;;;;;;0.50;0.50;;;29.50;87.80;;;;;;5041618;28;20908;-59
2022/08/23 09:40:16;;;;;;;0.80;0.80;;;28.80;88.50;;;;;;5038689;28;20429;-58
2022/08/23 09:42:43;;;;;;;0.75;0.68;;;29.40;89.20;;;;;;5022704;28;20448;-58
2022/08/23 09:45:28;;;;;;;0.60;0.60;;;29.50;88.40;;;;;;5044239;28;20513;-59
2022/08/23 09:48:01;;;;;;;0.60;0.60;;;29.00;88.60;;;;;;5040223;28;20491;-58
2022/08/23 09:50:38;;;;;;;0.60;0.60;;;29.20;88.60;;;;;;5042965;28;20494;-58
2022/08/23 09:53:13;;;;;;;0.60;0.60;;;29.50;90.10;;;;;;5029698;28;20470;-58
2022/08/23 09:55:56;;;;;;;0.60;0.60;;;29.80;88.50;;;;;;5043848;28;20508;-58
2022/08/23 09:58:30;;;;;;;0.60;0.60;;;30.10;88.20;;;;;;5037365;28;20439;-59
2022/08/23 10:01:22;;;;;;;0.52;0.52;;;30.40;88.60;;;;;;5039613;28;20433;-59
2022/08/23 10:04:11;;;;;;;0.68;0.68;;;30.50;88.20;;;;;;5042243;28;20437;-58
2022/08/23 10:06:41;;;;;;;0.60;0.60;;;30.50;88.50;;;;;;5039176;28;20441;-59
2022/08/23 10:09:30;;;;;;;0.70;0.70;;;30.70;87.10;;;;;;5039769;28;20440;-59
2022/08/23 10:11:59;;;;;;;0.57;0.57;;;30.60;88.40;;;;;;5041040;28;20464;-59
2022/08/23 10:14:27;;;;;;;0.60;0.60;;;30.60;87.90;;;;;;5044832;28;20465;-59
2022/08/23 10:17:09;;;;;;;0.60;0.60;;;30.00;89.20;;;;;;5042899;28;20435;-59
2022/08/23 10:19:55;;;;;;;0.85;0.85;;;30.50;87.90;;;;;;5049580;28;20487;-58
2022/08/23 10:22:25;;;;;;;0.60;0.60;;;30.40;87.10;;;;;;5039024;28;20499;-58
2022/08/23 10:25:26;;;;;;;0.50;0.50;;;30.20;88.70;;;;;;5039470;28;20455;-59
2022/08/23 10:31:38;;;;;;;0.60;0.60;;;30.90;87.00;;;;;;5040400;28;20442;-58
2022/08/23 10:34:49;;;;;;;0.73;0.65;;;31.10;86.60;;;;;;5004167;28;20507;-58
2022/08/23 10:37:36;;;;;;;0.60;0.60;;;30.80;86.70;;;;;;5044384;28;20438;-59
2022/08/23 10:40:16;;;;;;;0.63;0.63;;;30.90;85.60;;;;;;5039538;28;20443;-58
2022/08/23 10:42:51;;;;;;;0.80;0.70;;;31.00;86.20;;;;;;5045916;28;20810;-59
2022/08/23 10:45:39;;;;;;;0.60;0.60;;;31.20;85.90;;;;;;5042603;28;20482;-58
2022/08/23 10:48:25;;;;;;;0.70;0.70;;;31.40;85.50;;;;;;5038684;28;20442;-58
2022/08/23 10:51:36;;;;;;;0.60;0.60;;;31.90;85.10;;;;;;5041619;28;20447;-59
2022/08/23 10:54:27;;;;;;;0.60;0.60;;;31.60;85.10;;;;;;4998609;28;20433;-58
2022/08/23 10:56:57;;;;;;;0.70;0.70;;;31.90;85.50;;;;;;4987930;28;20433;-59
2022/08/23 10:59:26;;;;;;;0.77;0.77;;;32.50;84.70;;;;;;5005273;28;20974;-59
2022/08/23 11:02:16;;;;;;;0.65;0.65;;;33.10;85.70;;;;;;5006455;28;20461;-59
2022/08/23 11:04:55;;;;;;;0.60;0.60;;;33.40;83.40;;;;;;4990603;28;20446;-59
2022/08/23 11:07:40;;;;;;;0.77;0.77;;;33.80;81.70;;;;;;4997469;28;20442;-59
2022/08/23 11:10:41;;;;;;;0.68;0.68;;;33.30;81.30;;;;;;5005134;28;20424;-59
2022/08/23 11:13:28;;;;;;;1.00;0.80;;;33.10;83.70;;;;;;4995294;28;20429;-59
2022/08/23 11:16:22;;;;;;;0.70;0.70;;;33.30;83.10;;;;;;5008210;28;20966;-59
2022/08/23 11:18:49;;;;;;;1.00;0.90;;;33.50;82.50;;;;;;5003037;28;20435;-59
2022/08/23 11:21:16;;;;;;;0.80;0.80;;;33.60;82.80;;;;;;5008146;28;20438;-60
2022/08/23 11:24:14;;;;;;;0.85;0.85;;;33.30;82.40;;;;;;5002036;28;20444;-59
2022/08/23 11:26:44;;;;;;;2.72;2.53;;;32.90;81.70;;;;;;5006519;28;20537;-59
2022/08/23 11:29:20;;;;;;;0.73;0.73;;;32.80;83.00;;;;;;5007359;28;20428;-59
2022/08/23 11:31:56;;;;;;;0.60;0.60;;;33.20;82.40;;;;;;5030552;28;20436;-60
2022/08/23 11:34:29;;;;;;;0.77;0.77;;;33.70;82.70;;;;;;5044348;28;20432;-60
2022/08/23 11:37:20;;;;;;;0.90;0.90;;;34.10;83.70;;;;;;5046591;28;22016;-59
2022/08/23 11:39:56;;;;;;;0.70;0.70;;;34.00;80.70;;;;;;5014805;28;20436;-59
2022/08/23 11:42:39;;;;;;;1.10;1.00;;;33.90;80.80;;;;;;5048331;28;20437;-60
2022/08/23 11:45:29;;;;;;;0.65;0.65;;;33.70;81.70;;;;;;5051756;28;20452;-59
2022/08/23 11:48:14;;;;;;;0.70;0.70;;;33.10;80.20;;;;;;5044989;28;20457;-59
2022/08/23 11:50:51;;;;;;;0.80;0.80;;;33.20;81.60;;;;;;5042237;28;20971;-59
2022/08/23 11:53:40;;;;;;;0.70;0.70;;;32.60;80.40;;;;;;5041358;28;20491;-59
2022/08/23 11:56:40;;;;;;;0.60;0.60;;;32.20;81.70;;;;;;5033247;28;20558;-59
2022/08/23 11:59:38;;;;;;;0.50;0.50;;;32.70;81.70;;;;;;5006174;28;20435;-59
2022/08/23 12:02:32;;;;;;;0.63;0.63;;;33.40;82.30;;;;;;5044625;28;20487;-60
2022/08/23 12:05:22;;;;;;;0.68;0.68;;;33.50;80.50;;;;;;5036022;28;20439;-60
2022/08/23 12:08:16;;;;;;;0.80;0.80;;;33.10;80.60;;;;;;5032838;28;20433;-59
2022/08/23 12:10:44;;;;;;;0.60;0.60;;;32.70;79.80;;;;;;5043802;28;20429;-60
2022/08/23 12:13:18;;;;;;;0.60;0.60;;;33.20;79.80;;;;;;5041148;28;20439;-59
2022/08/23 12:16:06;;;;;;;0.70;0.70;;;33.70;80.70;;;;;;5045790;28;20479;-60
2022/08/23 12:18:50;;;;;;;0.70;0.70;;;34.20;79.00;;;;;;5048883;28;20429;-60
2022/08/23 12:21:38;;;;;;;0.77;0.77;;;34.10;80.20;;;;;;5048696;28;20476;-60
2022/08/23 12:24:23;;;;;;;0.85;0.85;;;34.30;78.10;;;;;;5048000;28;20456;-59
2022/08/23 12:27:22;;;;;;;0.60;0.60;;;34.30;77.40;;;;;;5041792;28;20456;-60
2022/08/23 12:29:58;;;;;;;0.60;0.60;;;33.80;77.20;;;;;;5047786;28;20487;-59
2022/08/23 12:32:52;;;;;;;0.80;0.80;;;33.60;75.50;;;;;;5051642;28;20520;-60
2022/08/23 12:35:33;;;;;;;1.60;0.80;;;33.80;76.10;;;;;;5043616;28;20433;-60
2022/08/23 12:38:08;;;;;;;0.57;0.57;;;34.00;77.40;;;;;;5043471;28;20811;-60
2022/08/23 12:40:47;;;;;;;0.70;0.70;;;34.70;77.80;;;;;;5049636;28;20433;-60
2022/08/23 12:43:28;;;;;;;0.83;0.83;;;35.00;78.00;;;;;;5039139;28;20436;-60
2022/08/23 12:45:56;;;;;;;0.65;0.65;;;35.30;75.30;;;;;;5044545;28;20482;-60
2022/08/23 12:48:27;;;;;;;0.68;0.68;;;35.60;75.00;;;;;;5035721;28;20439;-60
2022/08/23 12:51:09;;;;;;;0.80;0.80;;;35.20;73.20;;;;;;5053322;28;20525;-60
2022/08/23 12:53:41;;;;;;;0.77;0.77;;;35.50;75.00;;;;;;5044645;28;20501;-60
2022/08/23 12:56:28;;;;;;;0.70;0.70;;;35.90;75.60;;;;;;5039321;28;20868;-61
2022/08/23 12:59:03;;;;;;;0.73;0.73;;;35.80;72.80;;;;;;5032578;28;20459;-60
2022/08/23 13:01:37;;;;;;;0.60;0.60;;;35.50;72.00;;;;;;5039890;28;20447;-60
2022/08/23 13:04:11;;;;;;;0.60;0.60;;;35.40;70.60;;;;;;5045819;28;20431;-60
2022/08/23 13:06:57;;;;;;;0.60;0.60;;;35.70;72.40;;;;;;5040859;28;20431;-61
2022/08/23 13:09:30;;;;;;;0.73;0.73;;;35.50;73.20;;;;;;5051602;28;20457;-61
2022/08/23 13:12:01;;;;;;;0.70;0.70;;;35.50;71.10;;;;;;5031409;28;20506;-61
2022/08/23 13:14:31;;;;;;;0.60;0.60;;;34.80;71.90;;;;;;5037345;28;20842;-61
2022/08/23 13:17:21;;;;;;;0.60;0.60;;;34.90;73.00;;;;;;5043203;28;20428;-60
2022/08/23 13:20:09;;;;;;;0.73;0.73;;;34.90;72.70;;;;;;5036631;28;20862;-60
2022/08/23 13:22:58;;;;;;;0.80;0.60;;;35.40;72.30;;;;;;5033258;28;20909;-60
2022/08/23 13:25:40;;;;;;;0.70;0.70;;;35.80;71.40;;;;;;5045950;28;20936;-61
2022/08/23 13:28:24;;;;;;;0.45;0.45;;;36.00;71.80;;;;;;5039213;28;20433;-60
2022/08/23 13:31:06;;;;;;;0.80;0.80;;;36.10;69.90;;;;;;5045697;28;20455;-61
2022/08/23 13:33:34;;;;;;;0.85;0.85;;;36.30;71.50;;;;;;5034662;28;20592;-60
2022/08/23 13:36:13;;;;;;;0.80;0.70;;;36.60;70.70;;;;;;5040705;28;20464;-60